Time;durP1;ratioP1;P1;durP2;ratioP2;P2;SDS_P1;SDS_P2;PMS_P1;PMS_P2;Temp;Humidity;BMP_temperature;BMP_pressure;BME280_temperature;BME280_humidity;BME280_pressure;Samples;Min_cycle;Max_cycle;Signal;HPM_P1;HPM_P2
2021/08/22 00:01:45;;;;;;;4.80;3.00;;;;;;;18.11;78.64;100879.26;111403;1202;72927;-83
2021/08/22 00:04:11;;;;;;;5.60;3.90;;;;;;;18.09;78.69;100875.02;111580;1203;61075;-82
2021/08/22 00:06:38;;;;;;;4.90;3.30;;;;;;;18.07;78.73;100866.36;111454;1203;60626;-82
2021/08/22 00:09:05;;;;;;;8.40;4.30;;;;;;;18.06;78.83;100861.91;111497;1204;60177;-82
2021/08/22 00:11:32;;;;;;;5.30;3.50;;;;;;;18.04;78.77;100856.94;111539;1202;72218;-84
2021/08/22 00:13:59;;;;;;;5.30;3.50;;;;;;;18.03;78.83;100855.33;111230;1198;72470;-84
2021/08/22 00:16:25;;;;;;;7.40;3.50;;;;;;;18.00;78.89;100855.02;111468;1202;60237;-84
2021/08/22 00:18:52;;;;;;;7.20;3.80;;;;;;;17.98;79.04;100849.63;111429;1202;60240;-83
2021/08/22 00:21:19;;;;;;;4.60;3.50;;;;;;;17.95;79.14;100851.63;111461;1204;60269;-83
2021/08/22 00:23:45;;;;;;;3.70;2.60;;;;;;;17.89;79.29;100849.05;111516;1204;60267;-82
2021/08/22 00:26:12;;;;;;;6.30;3.60;;;;;;;17.83;79.35;100847.52;111439;1195;60197;-83
2021/08/22 00:28:38;;;;;;;6.40;3.90;;;;;;;17.80;79.40;100847.16;111399;1202;60249;-83
2021/08/22 00:31:05;;;;;;;6.20;3.50;;;;;;;17.74;79.41;100844.14;111385;1202;60397;-83
2021/08/22 00:33:31;;;;;;;8.40;4.30;;;;;;;17.69;79.50;100840.21;111480;1202;60214;-83
2021/08/22 00:35:58;;;;;;;5.70;2.90;;;;;;;17.63;79.75;100837.67;111479;1201;60256;-83
2021/08/22 00:38:24;;;;;;;4.80;3.80;;;;;;;17.59;79.89;100833.65;111343;1202;60276;-83
2021/08/22 00:40:51;;;;;;;7.50;3.50;;;;;;;17.55;80.06;100836.53;111268;1204;60271;-83
2021/08/22 00:43:17;;;;;;;4.70;3.30;;;;;;;17.50;80.22;100836.07;111301;1200;60273;-83
2021/08/22 00:45:44;;;;;;;6.20;3.80;;;;;;;17.45;80.33;100830.33;111366;1200;60317;-84
2021/08/22 00:48:12;;;;;;;7.00;4.20;;;;;;;17.42;80.62;100828.58;111350;1203;60271;-82
2021/08/22 00:50:39;;;;;;;6.30;3.80;;;;;;;17.36;80.76;100823.98;111386;1202;71566;-82
2021/08/22 00:53:06;;;;;;;5.90;4.00;;;;;;;17.30;81.01;100817.89;111358;1202;60316;-82
2021/08/22 00:55:33;;;;;;;6.30;3.30;;;;;;;17.25;81.11;100814.28;111413;1195;60196;-84
2021/08/22 00:58:00;;;;;;;5.30;3.60;;;;;;;17.20;81.37;100813.05;111581;1201;73733;-84
2021/08/22 01:00:26;;;;;;;6.30;4.10;;;;;;;17.15;81.64;100802.65;111353;1195;60352;-84
2021/08/22 01:03:12;;;;;;;4.70;3.40;;;;;;;17.10;81.85;100801.56;111397;1204;72506;-83
2021/08/22 01:05:50;;;;;;;5.50;3.90;;;;;;;17.03;82.10;100801.55;111414;1195;61181;-83
2021/08/22 01:08:25;;;;;;;6.20;4.00;;;;;;;16.99;82.46;100799.48;111388;1195;59657;-83
2021/08/22 01:10:54;;;;;;;;;;;;;;;16.96;82.57;100801.40;111445;1202;73837;-84
2021/08/22 01:13:24;;;;;;;5.10;3.70;;;;;;;16.92;82.81;100798.73;111278;1201;72011;-82
2021/08/22 01:15:56;;;;;;;7.20;4.00;;;;;;;16.88;83.07;100801.19;111450;1202;73685;-83
2021/08/22 01:18:26;;;;;;;8.10;4.50;;;;;;;16.85;83.13;100798.72;111356;1202;63037;-84
2021/08/22 01:21:17;;;;;;;6.90;3.80;;;;;;;16.81;83.31;100800.02;111319;1204;61570;-83
2021/08/22 01:23:49;;;;;;;7.10;4.20;;;;;;;16.78;83.53;100798.40;111347;1202;74820;-82
2021/08/22 01:26:18;;;;;;;6.40;4.10;;;;;;;16.74;83.62;100795.29;111365;1202;71946;-83
2021/08/22 01:28:47;;;;;;;5.70;4.20;;;;;;;16.69;83.91;100788.73;111412;1203;72649;-83
2021/08/22 01:31:21;;;;;;;6.80;4.20;;;;;;;16.66;84.04;100783.70;111393;1202;60447;-82
2021/08/22 01:33:51;;;;;;;7.20;4.50;;;;;;;16.63;84.25;100777.82;111274;1204;60487;-83
2021/08/22 01:36:21;;;;;;;7.70;4.20;;;;;;;16.60;84.30;100781.29;111215;1196;73800;-82
2021/08/22 01:38:49;;;;;;;7.20;4.90;;;;;;;16.57;84.40;100783.73;111401;1202;70989;-82
2021/08/22 01:41:18;;;;;;;5.30;3.80;;;;;;;16.53;84.60;100775.14;111367;1202;73424;-83
2021/08/22 01:43:45;;;;;;;5.30;3.90;;;;;;;16.50;84.75;100775.06;111458;1200;61968;-82
2021/08/22 01:46:16;;;;;;;5.20;3.40;;;;;;;16.46;84.91;100773.39;111477;1202;61872;-83
2021/08/22 01:48:44;;;;;;;7.60;3.80;;;;;;;16.43;85.07;100772.67;111426;1202;73604;-83
2021/08/22 01:51:12;;;;;;;6.80;4.00;;;;;;;16.39;85.13;100777.66;111327;1202;71950;-84
2021/08/22 01:53:38;;;;;;;5.60;4.20;;;;;;;16.34;85.24;100773.19;111334;1201;73537;-83
2021/08/22 01:56:05;;;;;;;5.40;3.90;;;;;;;16.31;85.33;100778.02;111472;1196;60205;-83
2021/08/22 01:58:32;;;;;;;5.20;4.00;;;;;;;16.27;85.50;100773.78;111464;1202;60208;-82
2021/08/22 02:00:58;;;;;;;6.70;4.00;;;;;;;16.25;85.70;100777.05;111234;1200;60271;-82
2021/08/22 02:03:35;;;;;;;6.10;4.00;;;;;;;16.24;85.74;100775.02;111303;1202;70760;-81
2021/08/22 02:06:15;;;;;;;6.60;3.50;;;;;;;16.24;85.97;100773.42;111348;1195;72687;-82
2021/08/22 02:08:43;;;;;;;5.00;3.30;;;;;;;16.25;86.02;100772.06;111360;1202;61626;-84
2021/08/22 02:11:14;;;;;;;5.20;3.90;;;;;;;16.25;86.15;100769.30;111444;1202;60950;-83
2021/08/22 02:13:45;;;;;;;4.40;3.60;;;;;;;16.25;86.26;100767.38;111524;1202;73743;-83
2021/08/22 02:16:15;;;;;;;6.10;4.10;;;;;;;16.24;86.28;100770.59;111300;1200;72355;-83
2021/08/22 02:18:42;;;;;;;4.90;3.60;;;;;;;16.21;86.27;100762.61;111350;1203;73477;-82
2021/08/22 02:21:09;;;;;;;4.70;3.60;;;;;;;16.19;86.53;100759.06;111359;1202;61935;-83
2021/08/22 02:23:36;;;;;;;4.80;3.30;;;;;;;16.19;86.58;100757.86;111285;1202;61260;-83
2021/08/22 02:26:03;;;;;;;5.30;3.90;;;;;;;16.17;86.56;100754.93;111528;1202;74916;-83
2021/08/22 02:28:31;;;;;;;4.50;3.70;;;;;;;16.16;86.89;100750.06;111316;1203;70652;-83
2021/08/22 02:30:57;;;;;;;6.00;3.60;;;;;;;16.14;86.85;100745.98;111335;1196;72931;-84
2021/08/22 02:33:24;;;;;;;6.40;3.40;;;;;;;16.13;86.98;100741.88;111325;1195;61997;-83
2021/08/22 02:35:51;;;;;;;7.00;3.90;;;;;;;16.13;87.00;100741.38;111412;1196;60566;-83
2021/08/22 02:38:18;;;;;;;8.70;3.80;;;;;;;16.11;87.02;100739.66;111279;1204;73653;-85
2021/08/22 02:40:44;;;;;;;4.50;3.30;;;;;;;16.09;87.10;100737.82;111327;1202;60311;-83
2021/08/22 02:43:11;;;;;;;4.40;3.40;;;;;;;16.07;87.12;100734.31;111202;1202;73574;-83
2021/08/22 02:45:37;;;;;;;4.80;3.70;;;;;;;16.04;87.13;100725.89;111295;1195;60314;-82
2021/08/22 02:48:04;;;;;;;6.40;4.00;;;;;;;16.02;87.36;100727.41;111326;1195;60230;-83
2021/08/22 02:50:31;;;;;;;7.30;4.30;;;;;;;16.01;87.49;100726.64;111346;1202;73728;-83
2021/08/22 02:52:57;;;;;;;5.00;4.00;;;;;;;16.01;87.58;100727.02;111321;1195;71460;-82
2021/08/22 02:55:24;;;;;;;5.60;3.80;;;;;;;16.00;87.57;100723.15;111330;1202;60247;-83
2021/08/22 02:57:51;;;;;;;6.60;3.50;;;;;;;15.99;87.59;100720.68;111359;1202;60295;-84
2021/08/22 03:00:17;;;;;;;4.70;3.30;;;;;;;15.98;87.51;100717.63;111307;1202;61469;-83
2021/08/22 03:02:45;;;;;;;6.50;3.90;;;;;;;15.95;87.59;100718.58;111328;1202;72496;-83
2021/08/22 03:05:12;;;;;;;5.50;3.60;;;;;;;15.93;87.64;100713.39;111355;1202;70919;-83
2021/08/22 03:07:38;;;;;;;5.10;4.00;;;;;;;15.92;87.81;100713.36;111275;1203;60266;-83
2021/08/22 03:10:06;;;;;;;4.60;3.50;;;;;;;15.91;87.90;100706.77;111502;1200;60256;-83
2021/08/22 03:12:32;;;;;;;5.50;4.20;;;;;;;15.89;87.92;100701.92;111401;1202;61507;-82
2021/08/22 03:14:59;;;;;;;5.30;3.90;;;;;;;15.89;87.95;100701.96;111339;1196;73805;-83
2021/08/22 03:17:26;;;;;;;5.20;3.40;;;;;;;15.89;87.99;100699.83;111554;1201;70644;-82
2021/08/22 03:19:53;;;;;;;5.90;3.20;;;;;;;15.87;88.01;100697.12;111436;1198;72739;-83
2021/08/22 03:22:20;;;;;;;4.40;3.50;;;;;;;15.84;88.04;100693.35;111405;1200;60234;-82
2021/08/22 03:24:47;;;;;;;6.90;4.10;;;;;;;15.82;88.29;100688.95;111343;1204;60237;-82
2021/08/22 03:27:13;;;;;;;5.60;3.70;;;;;;;15.80;88.32;100686.31;111317;1195;73821;-83
2021/08/22 03:29:40;;;;;;;5.80;3.40;;;;;;;15.78;88.25;100683.93;111219;1204;60241;-83
2021/08/22 03:32:08;;;;;;;6.20;4.10;;;;;;;15.75;88.34;100679.83;111503;1201;72754;-83
2021/08/22 03:34:34;;;;;;;5.20;3.70;;;;;;;15.73;88.58;100674.47;111484;1195;62701;-82
2021/08/22 03:37:01;;;;;;;5.60;3.80;;;;;;;15.69;88.60;100674.16;111557;1195;60289;-84
2021/08/22 03:39:28;;;;;;;6.00;4.30;;;;;;;15.67;88.68;100668.23;111559;1196;73855;-84
2021/08/22 03:41:55;;;;;;;6.20;4.00;;;;;;;15.66;88.75;100665.49;111494;1198;71011;-83
2021/08/22 03:44:23;;;;;;;7.90;4.00;;;;;;;15.66;88.94;100667.55;111347;1202;72206;-84
2021/08/22 03:46:49;;;;;;;6.80;4.10;;;;;;;15.65;89.03;100665.45;111439;1201;62697;-83
2021/08/22 03:49:16;;;;;;;6.10;3.30;;;;;;;15.65;89.15;100665.83;111416;1195;60253;-83
2021/08/22 03:51:43;;;;;;;5.40;4.10;;;;;;;15.65;88.96;100667.64;111303;1203;61505;-83
2021/08/22 03:54:09;;;;;;;6.70;4.30;;;;;;;15.65;88.95;100665.95;111196;1196;72450;-82
2021/08/22 03:56:36;;;;;;;5.20;3.70;;;;;;;15.67;88.98;100665.98;111243;1200;73877;-82
2021/08/22 03:59:07;;;;;;;4.50;3.50;;;;;;;15.67;89.00;100669.81;111308;1195;60618;-83
2021/08/22 04:01:34;;;;;;;5.30;3.90;;;;;;;15.68;88.94;100668.95;111434;1201;61118;-83
2021/08/22 04:04:03;;;;;;;6.30;4.60;;;;;;;15.71;89.11;100669.11;111418;1198;74932;-83
2021/08/22 04:06:30;;;;;;;5.40;4.10;;;;;;;15.74;89.10;100670.36;111506;1201;71040;-82
2021/08/22 04:09:00;;;;;;;6.10;4.10;;;;;;;15.77;89.07;100668.02;111402;1202;72802;-83
2021/08/22 04:11:28;;;;;;;5.10;3.50;;;;;;;15.79;88.98;100668.90;111444;1201;62013;-84
2021/08/22 04:13:55;;;;;;;4.90;3.30;;;;;;;15.81;88.86;100667.39;111369;1200;60910;-84
2021/08/22 04:16:22;;;;;;;4.80;3.30;;;;;;;15.84;88.78;100666.10;111288;1202;74669;-82
2021/08/22 04:18:49;;;;;;;4.20;3.00;;;;;;;15.87;88.67;100666.29;111437;1195;70920;-84
2021/08/22 04:21:16;;;;;;;5.90;3.70;;;;;;;15.87;88.50;100667.36;111422;1201;72582;-83
2021/08/22 04:23:42;;;;;;;5.00;3.50;;;;;;;15.91;88.53;100681.75;111490;1201;61888;-83
2021/08/22 04:26:09;;;;;;;5.30;3.70;;;;;;;15.93;88.53;100710.39;111297;1202;61188;-83
2021/08/22 04:28:36;;;;;;;5.70;3.80;;;;;;;15.92;89.77;100791.85;111565;1201;73829;-83
2021/08/22 04:31:03;;;;;;;9.20;6.30;;;;;;;15.90;90.41;100791.02;111407;1201;72054;-83
2021/08/22 04:33:30;;;;;;;9.30;6.10;;;;;;;15.92;90.23;100776.33;111401;1201;72377;-83
2021/08/22 04:35:56;;;;;;;7.50;6.30;;;;;;;15.96;89.92;100785.48;111347;1203;61635;-82
2021/08/22 04:38:23;;;;;;;9.30;6.80;;;;;;;16.01;89.39;100766.08;111312;1202;60282;-82
2021/08/22 04:40:49;;;;;;;12.50;8.20;;;;;;;16.06;89.08;100768.65;111360;1201;60230;-82
2021/08/22 04:43:15;;;;;;;7.80;6.40;;;;;;;16.11;89.25;100766.59;111361;1202;60282;-81
2021/08/22 04:45:42;;;;;;;10.00;7.00;;;;;;;16.15;89.15;100761.09;111270;1203;60289;-81
2021/08/22 04:48:08;;;;;;;8.30;5.90;;;;;;;16.17;89.01;100760.89;111243;1202;60295;-81
2021/08/22 04:50:35;;;;;;;10.40;6.50;;;;;;;16.17;89.38;100759.74;111053;1202;61487;-81
2021/08/22 04:53:01;;;;;;;9.60;5.60;;;;;;;16.19;89.57;100769.15;111402;1201;60266;-81
2021/08/22 04:55:28;;;;;;;9.90;7.40;;;;;;;16.19;89.78;100767.47;111203;1201;61479;-80
2021/08/22 04:57:54;;;;;;;10.00;6.70;;;;;;;16.17;90.40;100774.48;111383;1201;60275;-81
2021/08/22 05:00:21;;;;;;;10.10;6.70;;;;;;;16.16;90.45;100769.16;111868;1202;60226;-81
2021/08/22 05:02:47;;;;;;;11.50;7.10;;;;;;;16.14;90.44;100769.14;111434;1201;60249;-82
2021/08/22 05:05:15;;;;;;;10.40;6.10;;;;;;;16.12;90.97;100776.62;111380;1201;72573;-82
2021/08/22 05:07:41;;;;;;;8.80;6.70;;;;;;;16.11;91.46;100780.66;111346;1195;60202;-82
2021/08/22 05:10:08;;;;;;;8.70;6.90;;;;;;;16.13;91.93;100781.90;111142;1204;60975;-81
2021/08/22 05:12:35;;;;;;;11.50;8.00;;;;;;;16.13;92.40;100774.73;111204;1203;62123;-82
2021/08/22 05:15:05;;;;;;;11.30;6.60;;;;;;;16.13;92.57;100772.23;111307;1203;61179;-81
2021/08/22 05:17:32;;;;;;;12.40;8.20;;;;;;;16.14;92.86;100767.54;111303;1201;74002;-81
2021/08/22 05:19:58;;;;;;;13.40;7.80;;;;;;;16.14;93.09;100756.73;111306;1202;73158;-80
2021/08/22 05:22:25;;;;;;;12.30;7.60;;;;;;;16.15;93.04;100753.41;111220;1201;60315;-80
2021/08/22 05:24:51;;;;;;;10.10;7.50;;;;;;;16.14;92.91;100752.54;111468;1201;60271;-82
2021/08/22 05:27:18;;;;;;;12.60;9.10;;;;;;;16.11;93.02;100751.45;111133;1202;60615;-81
2021/08/22 05:29:44;;;;;;;11.20;8.10;;;;;;;16.12;93.44;100750.98;111148;1201;60257;-81
2021/08/22 05:32:11;;;;;;;10.10;7.20;;;;;;;16.13;93.57;100744.60;111262;1201;60247;-81
2021/08/22 05:34:37;;;;;;;8.80;6.50;;;;;;;16.12;93.56;100753.34;111414;1201;60205;-82
2021/08/22 05:37:04;;;;;;;9.80;6.60;;;;;;;16.08;93.57;100753.25;111096;1203;60249;-82
2021/08/22 05:39:30;;;;;;;8.20;6.40;;;;;;;16.05;93.76;100753.55;111313;1202;60717;-82
2021/08/22 05:41:57;;;;;;;10.50;6.50;;;;;;;16.02;94.20;100752.48;111151;1201;60297;-81
2021/08/22 05:44:23;;;;;;;8.50;6.90;;;;;;;15.99;94.30;100756.83;111062;1201;60312;-82
2021/08/22 05:46:50;;;;;;;10.10;7.30;;;;;;;15.99;94.58;100755.24;111135;1195;60243;-80
2021/08/22 05:49:16;;;;;;;11.10;7.30;;;;;;;16.01;94.88;100761.91;111286;1201;60278;-82
2021/08/22 05:51:45;;;;;;;10.90;8.00;;;;;;;16.02;94.83;100758.94;111279;1200;60281;-82
2021/08/22 05:54:11;;;;;;;8.60;5.80;;;;;;;16.01;94.74;100761.27;111353;1202;74869;-81
2021/08/22 05:56:38;;;;;;;9.90;7.50;;;;;;;16.01;94.95;100761.77;111161;1201;71432;-82
2021/08/22 05:59:04;;;;;;;7.70;5.80;;;;;;;16.03;95.19;100764.55;111257;1201;60269;-82
2021/08/22 06:01:31;;;;;;;12.00;7.90;;;;;;;16.04;95.27;100761.58;111351;1195;60292;-82
2021/08/22 06:03:58;;;;;;;13.10;7.80;;;;;;;16.08;95.62;100763.83;111356;1201;60242;-82
2021/08/22 06:06:25;;;;;;;12.50;8.60;;;;;;;16.12;95.95;100768.77;111317;1195;73785;-81
2021/08/22 06:08:51;;;;;;;8.90;6.30;;;;;;;16.17;95.66;100772.33;111285;1198;71978;-81
2021/08/22 06:11:18;;;;;;;6.60;5.50;;;;;;;16.18;95.33;100779.58;111281;1202;60184;-82
2021/08/22 06:13:44;;;;;;;11.20;6.90;;;;;;;16.18;95.51;100784.89;111168;1203;60318;-80
2021/08/22 06:16:11;;;;;;;7.60;6.40;;;;;;;16.18;95.59;100785.56;111512;1201;61274;-82
2021/08/22 06:18:37;;;;;;;8.90;6.00;;;;;;;16.18;95.86;100786.17;111489;1201;61515;-82
2021/08/22 06:21:04;;;;;;;12.40;8.00;;;;;;;16.20;95.93;100783.77;111643;1202;60259;-83
2021/08/22 06:23:31;;;;;;;8.60;6.80;;;;;;;16.22;96.03;100784.42;111223;1201;60288;-83
2021/08/22 06:25:57;;;;;;;9.90;7.00;;;;;;;16.24;95.87;100783.92;111322;1201;60259;-82
2021/08/22 06:28:24;;;;;;;9.40;6.40;;;;;;;16.24;95.70;100781.95;111189;1203;60196;-82
2021/08/22 06:30:50;;;;;;;10.60;6.60;;;;;;;16.26;95.76;100784.50;111371;1202;60242;-82
2021/08/22 06:33:16;;;;;;;13.50;7.90;;;;;;;16.29;95.82;100789.11;111143;1203;60183;-82
2021/08/22 06:35:43;;;;;;;9.50;5.90;;;;;;;16.31;95.74;100790.50;111465;1203;60295;-82
2021/08/22 06:38:10;;;;;;;8.60;6.90;;;;;;;16.31;95.65;100789.87;111179;1202;60385;-82
2021/08/22 06:40:36;;;;;;;13.20;7.00;;;;;;;16.33;95.81;100786.70;111331;1201;60646;-81
2021/08/22 06:43:03;;;;;;;8.90;6.80;;;;;;;16.34;95.93;100788.26;111333;1201;60263;-82
2021/08/22 06:45:29;;;;;;;8.60;6.00;;;;;;;16.37;95.91;100793.81;111350;1195;60172;-81
2021/08/22 06:47:56;;;;;;;6.90;4.90;;;;;;;16.38;96.04;100796.86;111262;1195;60224;-82
2021/08/22 06:50:24;;;;;;;10.60;6.50;;;;;;;16.36;96.21;100796.37;111521;1203;60287;-83
2021/08/22 06:52:52;;;;;;;10.00;7.30;;;;;;;16.35;96.46;100796.24;111380;1195;60279;-82
2021/08/22 06:55:20;;;;;;;8.30;6.40;;;;;;;16.34;96.68;100795.51;111318;1195;72938;-81
2021/08/22 06:57:47;;;;;;;10.30;7.30;;;;;;;16.33;96.48;100797.91;111366;1202;72048;-82
2021/08/22 07:00:15;;;;;;;9.40;7.10;;;;;;;16.34;96.65;100796.95;111256;1202;73556;-82
2021/08/22 07:02:43;;;;;;;8.40;6.40;;;;;;;16.32;96.72;100797.87;111183;1196;61774;-83
2021/08/22 07:05:11;;;;;;;7.80;6.00;;;;;;;16.31;96.69;100797.95;111275;1195;61390;-81
2021/08/22 07:07:38;;;;;;;9.30;6.80;;;;;;;16.33;96.71;100798.98;111178;1203;74902;-83
2021/08/22 07:10:05;;;;;;;7.50;5.30;;;;;;;16.35;97.00;100799.43;111376;1201;71041;-81
2021/08/22 07:12:32;;;;;;;8.00;6.70;;;;;;;16.35;97.28;100796.91;111335;1195;72537;-82
2021/08/22 07:14:58;;;;;;;7.70;6.20;;;;;;;16.35;97.39;100797.33;111453;1201;61414;-85
2021/08/22 07:17:25;;;;;;;7.90;6.70;;;;;;;16.36;97.48;100798.38;111526;1195;60265;-83
2021/08/22 07:19:52;;;;;;;10.00;7.30;;;;;;;16.37;97.51;100799.12;112655;1195;73648;-82
2021/08/22 07:22:18;;;;;;;8.90;6.80;;;;;;;16.39;97.50;100801.31;111893;1195;72495;-83
2021/08/22 07:24:45;;;;;;;8.50;7.00;;;;;;;16.41;97.55;100799.98;111764;1195;60279;-83
2021/08/22 07:27:13;;;;;;;10.90;7.30;;;;;;;16.42;97.59;100801.41;111637;1195;61979;-82
2021/08/22 07:29:39;;;;;;;11.60;7.30;;;;;;;16.46;97.71;100806.52;111916;1195;61372;-82
2021/08/22 07:32:06;;;;;;;7.40;5.50;;;;;;;16.47;97.39;100804.09;112027;1202;72797;-81
2021/08/22 07:34:33;;;;;;;8.30;6.20;;;;;;;16.47;97.40;100802.73;111945;1203;70959;-83
2021/08/22 07:37:00;;;;;;;12.40;6.60;;;;;;;16.47;97.29;100799.61;111983;1195;72587;-81
2021/08/22 07:39:26;;;;;;;7.50;6.00;;;;;;;16.48;97.37;100798.56;112059;1194;60300;-82
2021/08/22 07:41:53;;;;;;;11.00;6.00;;;;;;;16.49;97.67;100800.70;111924;1201;60260;-82
2021/08/22 07:44:21;;;;;;;9.10;6.10;;;;;;;16.49;97.59;100802.05;112076;1202;60279;-81
2021/08/22 07:46:48;;;;;;;7.90;6.00;;;;;;;16.50;97.50;100806.37;112358;1195;72296;-82
2021/08/22 07:49:19;;;;;;;7.80;5.40;;;;;;;16.53;97.50;100805.38;112041;1203;72487;-82
2021/08/22 07:51:48;;;;;;;8.40;6.90;;;;;;;16.54;97.41;100807.85;111844;1195;61987;-82
2021/08/22 07:54:15;;;;;;;9.00;5.80;;;;;;;16.57;97.45;100813.15;111873;1203;61298;-82
2021/08/22 07:56:43;;;;;;;9.30;6.70;;;;;;;16.60;97.67;100815.90;111798;1202;60224;-83
2021/08/22 07:59:10;;;;;;;8.30;5.50;;;;;;;16.67;97.72;100821.27;111808;1201;72772;-83
2021/08/22 08:01:37;;;;;;;10.20;6.30;;;;;;;16.76;97.51;100825.63;111827;1201;72428;-81
2021/08/22 08:04:04;;;;;;;8.60;4.90;;;;;;;16.82;97.23;100830.79;111971;1201;60601;-82
2021/08/22 08:06:31;;;;;;;8.20;6.10;;;;;;;16.86;96.93;100827.90;111904;1196;61546;-83
2021/08/22 08:08:58;;;;;;;8.50;6.20;;;;;;;16.93;96.70;100820.95;111848;1201;74683;-83
2021/08/22 08:11:25;;;;;;;10.20;6.20;;;;;;;17.00;96.80;100824.91;111964;1201;71051;-83
2021/08/22 08:13:52;;;;;;;7.30;5.20;;;;;;;17.11;96.52;100828.02;111721;1202;73758;-81
2021/08/22 08:16:18;;;;;;;7.80;5.80;;;;;;;17.17;96.15;100832.23;111848;1195;60284;-83
2021/08/22 08:18:45;;;;;;;9.00;5.80;;;;;;;17.21;95.85;100835.76;111528;1203;62484;-83
2021/08/22 08:21:12;;;;;;;7.80;5.90;;;;;;;17.26;95.61;100836.85;111643;1203;60186;-82
2021/08/22 08:23:38;;;;;;;7.60;5.50;;;;;;;17.28;95.13;100838.48;111640;1195;70699;-82
2021/08/22 08:26:05;;;;;;;7.80;5.70;;;;;;;17.30;94.97;100843.10;111513;1202;72715;-82
2021/08/22 08:28:32;;;;;;;8.70;6.00;;;;;;;17.32;94.81;100843.08;112388;1195;61944;-83
2021/08/22 08:30:58;;;;;;;7.30;5.60;;;;;;;17.33;94.63;100844.64;112078;1201;60205;-82
2021/08/22 08:33:25;;;;;;;8.80;6.70;;;;;;;17.34;94.79;100845.55;111733;1203;73879;-83
2021/08/22 08:35:52;;;;;;;10.40;6.40;;;;;;;17.35;94.94;100848.92;111486;1202;71940;-81
2021/08/22 08:38:19;;;;;;;9.10;6.40;;;;;;;17.38;94.67;100848.19;111442;1203;60238;-81
2021/08/22 08:40:46;;;;;;;10.70;6.30;;;;;;;17.39;94.61;100850.95;111434;1195;62747;-83
2021/08/22 08:43:15;;;;;;;6.40;5.00;;;;;;;17.38;94.60;100851.58;111436;1202;61285;-81
2021/08/22 08:45:57;;;;;;;8.40;5.70;;;;;;;17.35;94.58;100853.95;111569;1202;75084;-82
2021/08/22 08:48:26;;;;;;;8.70;5.10;;;;;;;17.33;94.73;100853.85;111506;1195;73691;-83
2021/08/22 08:51:14;;;;;;;8.70;5.40;;;;;;;17.33;94.99;100854.91;111849;1203;74826;-82
2021/08/22 08:53:43;;;;;;;7.30;4.80;;;;;;;17.34;95.08;100853.05;112191;1201;62367;-82
2021/08/22 08:56:14;;;;;;;5.90;4.20;;;;;;;17.33;95.20;100854.41;112111;1201;60305;-83
2021/08/22 08:58:41;;;;;;;7.40;5.40;;;;;;;17.36;95.29;100856.38;112104;1203;73630;-81
2021/08/22 09:01:08;;;;;;;9.80;5.30;;;;;;;17.39;95.51;100859.77;111924;1202;70948;-81
2021/08/22 09:03:42;;;;;;;6.60;4.80;;;;;;;17.46;95.57;100855.16;111917;1201;71523;-82
2021/08/22 09:06:24;;;;;;;7.20;4.70;;;;;;;17.55;95.38;100856.33;112017;1194;63119;-83
2021/08/22 09:09:18;;;;;;;6.30;4.50;;;;;;;17.65;95.27;100854.90;111485;1202;60963;-75
2021/08/22 09:12:23;;;;;;;8.60;5.00;;;;;;;17.80;95.27;100860.29;110923;1201;75108;-74
2021/08/22 09:15:27;;;;;;;5.00;4.10;;;;;;;18.02;94.90;100858.30;111036;1201;70442;-77
2021/08/22 09:18:31;;;;;;;6.00;4.40;;;;;;;18.17;93.66;100852.88;111121;1201;73757;-74
2021/08/22 09:21:10;;;;;;;8.00;3.90;;;;;;;18.34;93.39;100850.33;111067;1203;61705;-77
2021/08/22 09:24:18;;;;;;;5.10;4.00;;;;;;;18.53;93.30;100852.59;111052;1201;61541;-75
2021/08/22 09:27:25;;;;;;;5.60;3.40;;;;;;;18.73;92.03;100853.77;110769;1203;72742;-75
2021/08/22 09:30:30;;;;;;;4.70;3.30;;;;;;;18.86;91.66;100849.51;110831;1195;71043;-75
2021/08/22 09:33:08;;;;;;;4.30;3.00;;;;;;;19.04;91.07;100846.01;110857;1203;72563;-75
2021/08/22 09:36:13;;;;;;;4.20;3.10;;;;;;;19.22;91.10;100847.67;110954;1201;61922;-75
2021/08/22 09:39:05;;;;;;;4.90;3.10;;;;;;;19.44;90.11;100853.02;111010;1201;61224;-76
2021/08/22 09:42:09;;;;;;;3.60;3.00;;;;;;;19.62;89.11;100847.58;111010;1201;73658;-77
2021/08/22 09:45:15;;;;;;;3.90;3.20;;;;;;;19.85;87.87;100844.50;111048;1201;71559;-76
2021/08/22 09:47:59;;;;;;;5.30;3.80;;;;;;;20.11;87.57;100851.35;110887;1203;72514;-75
2021/08/22 09:51:05;;;;;;;3.40;2.00;;;;;;;20.35;86.70;100846.39;110967;1198;61197;-76
2021/08/22 09:54:09;;;;;;;4.60;3.60;;;;;;;20.55;83.58;100847.14;110983;1201;60924;-76
2021/08/22 09:57:13;;;;;;;5.70;3.50;;;;;;;20.75;83.44;100847.47;110980;1201;73025;-76
2021/08/22 10:00:23;;;;;;;5.30;3.20;;;;;;;20.97;83.65;100841.33;110896;1203;71187;-75
2021/08/22 10:02:49;;;;;;;4.10;2.90;;;;;;;21.25;83.96;100845.34;111133;1194;72706;-75
2021/08/22 10:05:24;;;;;;;5.80;2.60;;;;;;;21.46;83.70;100846.11;111056;1203;64236;-76
2021/08/22 10:08:21;;;;;;;3.70;2.40;;;;;;;21.63;81.97;100844.35;110955;1201;60185;-75
2021/08/22 10:11:03;;;;;;;3.90;2.70;;;;;;;21.73;80.93;100839.06;111197;1201;73619;-76
2021/08/22 10:13:31;;;;;;;6.00;3.80;;;;;;;21.81;81.22;100840.64;110976;1202;70480;-76
2021/08/22 10:15:57;;;;;;;6.10;3.50;;;;;;;21.92;80.22;100839.36;110867;1203;73179;-76
2021/08/22 10:18:25;;;;;;;4.00;2.40;;;;;;;22.07;80.09;100842.61;110807;1203;60387;-76
2021/08/22 10:21:00;;;;;;;6.30;3.30;;;;;;;22.27;80.02;100834.27;110874;1202;60263;-75
2021/08/22 10:23:54;;;;;;;3.80;3.40;;;;;;;22.47;76.39;100831.50;111034;1195;73594;-74
2021/08/22 10:26:46;;;;;;;5.80;4.00;;;;;;;22.67;73.63;100830.45;110885;1196;70991;-74
2021/08/22 10:29:16;;;;;;;4.30;3.20;;;;;;;23.00;74.53;100828.89;110825;1203;73765;-74
2021/08/22 10:31:48;;;;;;;4.70;3.30;;;;;;;23.44;73.85;100834.69;110908;1202;61418;-76
2021/08/22 10:34:20;;;;;;;4.10;3.10;;;;;;;23.69;69.80;100835.16;110971;1201;61479;-74
2021/08/22 10:36:48;;;;;;;2.70;2.50;;;;;;;23.74;67.23;100833.92;110932;1201;73746;-75
2021/08/22 10:39:26;;;;;;;3.50;3.00;;;;;;;23.74;65.33;100829.54;111049;1201;71857;-75
2021/08/22 10:41:58;;;;;;;3.50;3.00;;;;;;;23.68;66.79;100839.23;111117;1203;73633;-76
2021/08/22 10:44:34;;;;;;;3.30;2.70;;;;;;;23.71;65.68;100835.89;110917;1203;61363;-76
2021/08/22 10:47:09;;;;;;;3.40;2.90;;;;;;;23.63;64.68;100830.73;110846;1203;61407;-75
2021/08/22 10:49:54;;;;;;;3.40;2.60;;;;;;;23.50;65.69;100830.20;111002;1203;74101;-74
2021/08/22 10:52:30;;;;;;;4.40;3.10;;;;;;;23.43;67.25;100826.73;111112;1202;72119;-75
2021/08/22 10:55:06;;;;;;;6.00;3.30;;;;;;;23.43;67.93;100825.33;110887;1202;72284;-74
2021/08/22 10:57:50;;;;;;;4.20;3.40;;;;;;;23.47;67.20;100824.00;110981;1201;60389;-75
2021/08/22 11:00:25;;;;;;;3.70;3.10;;;;;;;23.56;66.98;100824.23;111113;1195;60716;-74
2021/08/22 11:03:13;;;;;;;4.70;3.30;;;;;;;23.66;66.76;100825.29;111097;1202;73928;-76
2021/08/22 11:05:40;;;;;;;6.00;4.10;;;;;;;23.67;65.40;100825.95;111075;1202;71222;-75
2021/08/22 11:08:20;;;;;;;3.80;3.20;;;;;;;23.58;65.14;100829.19;110957;1202;60193;-73
2021/08/22 11:10:58;;;;;;;5.60;4.30;;;;;;;23.43;65.02;100824.58;110852;1202;60259;-73
2021/08/22 11:13:27;;;;;;;4.50;4.00;;;;;;;23.26;65.39;100824.89;111196;1202;60512;-76
2021/08/22 11:15:53;;;;;;;5.30;4.50;;;;;;;23.15;67.02;100823.98;111023;1202;75027;-75
2021/08/22 11:18:20;;;;;;;5.60;4.80;;;;;;;23.05;67.42;100820.15;111087;1202;70955;-75
2021/08/22 11:20:47;;;;;;;6.00;4.40;;;;;;;22.88;67.04;100818.58;111203;1201;73594;-75
2021/08/22 11:23:17;;;;;;;5.50;4.10;;;;;;;22.71;67.66;100822.17;111614;1202;61238;-73
2021/08/22 11:25:46;;;;;;;8.30;4.50;;;;;;;22.60;68.09;100821.84;111373;1202;59872;-75
2021/08/22 11:28:15;;;;;;;6.00;3.90;;;;;;;22.54;69.21;100824.47;111353;1201;75046;-74
2021/08/22 11:30:43;;;;;;;5.70;4.10;;;;;;;22.49;68.54;100820.98;111374;1202;70913;-74
2021/08/22 11:33:11;;;;;;;4.90;3.70;;;;;;;22.43;68.74;100819.35;111082;1202;73616;-73